createdAt,value
2022-09-09T00:01:36.519Z,97798.63
2022-09-09T00:04:25.196Z,97792.91
2022-09-09T00:07:06.074Z,97768.16
2022-09-09T00:09:46.372Z,97764.56
2022-09-09T00:12:19.333Z,97789.19
2022-09-09T00:14:56.341Z,97751.41
2022-09-09T00:17:44.672Z,97784.69
2022-09-09T00:20:26.042Z,97770.47
2022-09-09T00:23:01.448Z,97746.31
2022-09-09T00:25:38.939Z,97623.38
2022-09-09T00:28:18.258Z,97782.91
2022-09-09T00:30:46.891Z,97759.84
2022-09-09T00:33:14.759Z,97739.72
2022-09-09T00:35:48.094Z,97758.81
2022-09-09T00:38:24.783Z,97732.91
2022-09-09T00:41:10.511Z,97706.53
2022-09-09T00:43:39.762Z,97716.13
2022-09-09T00:46:15.719Z,97781.47
2022-09-09T00:48:48.554Z,97783.78
2022-09-09T00:51:30.471Z,97777.25
2022-09-09T00:54:06.121Z,97786.03
2022-09-09T00:56:38.885Z,97732.41
2022-09-09T00:59:37.789Z,97791.13
2022-09-09T01:02:19.904Z,97761.81
2022-09-09T01:04:46.802Z,97499.81
2022-09-09T01:07:18.527Z,97799.75
2022-09-09T01:09:59.845Z,97796.13
2022-09-09T01:12:36.314Z,97736.31
2022-09-09T01:15:19.133Z,97737.13
2022-09-09T01:17:59.040Z,97790.00
2022-09-09T01:20:29.009Z,97772.44
2022-09-09T01:23:01.782Z,97782.19
2022-09-09T01:25:45.420Z,97779.66
2022-09-09T01:28:27.521Z,97672.22
2022-09-09T01:30:59.721Z,97777.97
2022-09-09T01:33:30.786Z,97721.69
2022-09-09T01:36:09.334Z,97604.00
2022-09-09T01:38:44.029Z,97732.94
2022-09-09T01:41:10.835Z,97531.06
2022-09-09T01:43:47.987Z,97741.34
2022-09-09T01:46:15.654Z,97761.41
2022-09-09T01:48:44.191Z,97728.50
2022-09-09T01:51:11.486Z,97652.00
2022-09-09T01:53:42.436Z,97718.81
2022-09-09T01:56:37.330Z,97731.88
2022-09-09T01:59:14.104Z,97775.59
2022-09-09T02:02:20.258Z,97784.38
2022-09-09T02:05:14.696Z,97715.38
2022-09-09T02:07:44.806Z,97705.69
2022-09-09T02:10:37.006Z,97710.19
2022-09-09T02:13:15.650Z,97737.84
2022-09-09T02:15:56.697Z,97691.00
2022-09-09T02:18:41.062Z,97717.56
2022-09-09T02:21:10.990Z,97746.88
2022-09-09T02:23:39.877Z,97702.34
2022-09-09T02:26:12.564Z,97689.41
2022-09-09T02:28:41.379Z,97714.03
2022-09-09T02:31:08.037Z,97707.53
2022-09-09T02:33:45.693Z,97722.94
2022-09-09T02:36:15.736Z,97765.81
2022-09-09T02:38:47.261Z,97743.03
2022-09-09T02:41:15.818Z,97717.63
2022-09-09T02:43:43.046Z,97662.16
2022-09-09T02:46:23.049Z,97766.94
2022-09-09T02:49:09.874Z,97773.50
2022-09-09T02:51:42.222Z,97769.81
2022-09-09T02:54:25.946Z,97769.47
2022-09-09T02:56:55.288Z,97684.91
2022-09-09T02:59:28.169Z,97747.38
2022-09-09T03:01:55.024Z,97639.22
2022-09-09T03:04:22.035Z,97731.91
2022-09-09T03:06:49.392Z,97671.41
2022-09-09T03:09:19.746Z,97771.72
2022-09-09T03:11:46.618Z,97758.81
2022-09-09T03:14:15.872Z,97765.03
2022-09-09T03:16:42.612Z,97788.16
2022-09-09T03:19:09.556Z,97729.25
2022-09-09T03:21:36.419Z,97768.50
2022-09-09T03:24:03.322Z,97726.63
2022-09-09T03:26:31.065Z,97771.78
2022-09-09T03:28:57.958Z,97687.81
2022-09-09T03:31:24.731Z,97686.88
2022-09-09T03:33:52.021Z,97618.75
2022-09-09T03:36:20.246Z,97722.69
2022-09-09T03:38:46.829Z,97710.66
2022-09-09T03:41:13.615Z,97704.31
2022-09-09T03:43:40.181Z,97705.22
2022-09-09T03:46:06.856Z,97700.28
2022-09-09T03:48:33.942Z,97561.84
2022-09-09T03:51:01.095Z,97780.22
2022-09-09T03:53:28.820Z,97720.88
2022-09-09T03:55:58.062Z,97766.25
2022-09-09T03:58:27.325Z,97736.22
2022-09-09T04:01:00.269Z,97773.66
2022-09-09T04:03:28.738Z,97690.34
2022-09-09T04:05:58.397Z,97705.34
2022-09-09T04:08:27.558Z,97704.66
2022-09-09T04:10:55.543Z,97740.84
2022-09-09T04:13:22.262Z,97698.75
2022-09-09T04:15:56.967Z,97603.22
2022-09-09T04:18:24.687Z,97762.47
2022-09-09T04:20:52.548Z,97765.53
2022-09-09T04:23:22.068Z,97734.06
2022-09-09T04:25:54.438Z,97533.41
2022-09-09T04:28:24.019Z,97774.41
2022-09-09T04:30:50.937Z,97709.28
2022-09-09T04:33:17.545Z,97700.03
2022-09-09T04:35:49.498Z,97763.22
2022-09-09T04:38:18.260Z,97698.56
2022-09-09T04:40:47.699Z,97481.06
2022-09-09T04:43:15.630Z,97779.19
2022-09-09T04:45:44.850Z,97737.34
2022-09-09T04:48:12.098Z,97600.03
2022-09-09T04:50:38.752Z,97632.00
2022-09-09T04:53:06.077Z,97784.56
2022-09-09T04:55:34.412Z,97742.53
2022-09-09T04:58:08.800Z,97703.81
2022-09-09T05:00:36.333Z,97641.56
2022-09-09T05:03:06.801Z,97746.63
2022-09-09T05:05:34.866Z,97781.16
2022-09-09T05:08:09.873Z,97741.97
2022-09-09T05:10:39.653Z,97756.78
2022-09-09T05:13:06.629Z,97788.13
2022-09-09T05:15:33.649Z,97715.22
2022-09-09T05:18:01.642Z,97789.44
2022-09-09T05:20:30.702Z,97722.47
2022-09-09T05:22:58.014Z,97720.88
2022-09-09T05:25:28.597Z,97677.97
2022-09-09T05:27:56.193Z,97742.44
2022-09-09T05:30:22.917Z,97799.41
2022-09-09T05:32:51.205Z,97751.31
2022-09-09T05:35:18.729Z,97717.50
2022-09-09T05:37:45.457Z,97799.72
2022-09-09T05:40:12.320Z,97809.13
2022-09-09T05:42:40.210Z,97715.78
2022-09-09T05:45:08.993Z,97798.88
2022-09-09T05:47:37.399Z,97797.97
2022-09-09T05:50:06.796Z,97751.16
2022-09-09T05:52:33.391Z,97696.31
2022-09-09T05:55:00.239Z,97808.69
2022-09-09T05:57:26.865Z,97648.88
2022-09-09T05:59:53.793Z,97726.56
2022-09-09T06:02:20.603Z,97730.47
2022-09-09T06:04:47.372Z,97650.34
2022-09-09T06:07:14.097Z,97707.16
2022-09-09T06:09:41.887Z,97818.41
2022-09-09T06:12:09.058Z,97714.28
2022-09-09T06:14:36.797Z,97791.78
2022-09-09T06:17:03.576Z,97733.28
2022-09-09T06:19:31.064Z,97760.34
2022-09-09T06:21:59.281Z,97770.44
2022-09-09T06:24:27.531Z,97771.63
2022-09-09T06:26:54.205Z,97754.06
2022-09-09T06:29:24.918Z,97793.03
2022-09-09T06:31:53.046Z,97788.69
2022-09-09T06:34:24.424Z,97751.44
2022-09-09T06:36:55.155Z,97767.31
2022-09-09T06:39:21.804Z,97755.28
2022-09-09T06:41:48.383Z,97748.09
2022-09-09T06:44:41.211Z,97609.97
2022-09-09T06:47:12.466Z,97742.19
2022-09-09T06:49:40.854Z,97723.16
2022-09-09T06:52:10.413Z,97805.03
2022-09-09T06:54:38.454Z,97723.13
2022-09-09T06:57:20.795Z,97772.69
2022-09-09T06:59:52.746Z,97724.09
2022-09-09T07:02:20.451Z,97780.63
2022-09-09T07:04:47.584Z,97671.50
2022-09-09T07:07:14.735Z,97739.69
2022-09-09T07:09:41.438Z,97782.84
2022-09-09T07:12:08.613Z,97733.84
2022-09-09T07:14:38.763Z,97715.41
2022-09-09T07:17:08.230Z,97730.22
2022-09-09T07:19:38.062Z,97755.59
2022-09-09T07:22:05.854Z,97746.16
2022-09-09T07:24:33.227Z,97784.81
2022-09-09T07:26:59.935Z,97772.28
2022-09-09T07:29:27.088Z,97729.19
2022-09-09T07:31:53.881Z,97788.56
2022-09-09T07:34:25.813Z,97814.59
2022-09-09T07:36:52.496Z,97806.19
2022-09-09T07:39:19.892Z,97739.19
2022-09-09T07:41:50.456Z,97796.16
2022-09-09T07:44:22.519Z,97762.81
2022-09-09T07:46:54.118Z,97722.16
2022-09-09T07:49:32.177Z,97777.91
2022-09-09T07:52:01.289Z,97795.13
2022-09-09T07:54:28.695Z,97744.66
2022-09-09T07:56:55.698Z,97812.63
2022-09-09T07:59:25.558Z,97798.41
2022-09-09T08:01:54.236Z,97745.53
2022-09-09T08:04:25.496Z,97847.53
2022-09-09T08:06:56.508Z,97848.34
2022-09-09T08:09:25.409Z,97850.53
2022-09-09T08:11:52.565Z,97819.91
2022-09-09T08:14:19.714Z,97768.94
2022-09-09T08:16:48.862Z,97691.88
2022-09-09T08:19:18.561Z,97786.38
2022-09-09T08:21:47.361Z,97821.34
2022-09-09T08:24:14.303Z,97854.34
2022-09-09T08:26:43.422Z,97854.97
2022-09-09T08:29:13.807Z,97860.47
2022-09-09T08:31:43.885Z,97860.16
2022-09-09T08:34:11.956Z,97861.97
2022-09-09T08:36:41.796Z,97869.06
2022-09-09T08:39:09.748Z,97817.66
2022-09-09T08:41:59.490Z,97861.78
2022-09-09T08:44:35.298Z,97861.78
2022-09-09T08:47:03.840Z,97854.56
2022-09-09T08:49:54.899Z,97812.53
2022-09-09T08:52:30.021Z,97818.91
2022-09-09T08:55:14.415Z,97864.34
2022-09-09T08:57:41.290Z,97821.59
2022-09-09T09:00:11.315Z,97788.78
2022-09-09T09:03:00.295Z,97805.75
2022-09-09T09:05:48.489Z,97830.34
2022-09-09T09:08:29.877Z,97769.09
2022-09-09T09:10:59.083Z,97837.25
2022-09-09T09:14:11.278Z,97833.34
2022-09-09T09:16:58.854Z,97833.50
2022-09-09T09:19:29.177Z,97879.59
2022-09-09T09:22:11.664Z,97792.69
2022-09-09T09:24:57.144Z,97873.38
2022-09-09T09:27:41.230Z,97812.41
2022-09-09T09:30:30.035Z,97882.44
2022-09-09T09:33:25.768Z,97872.25
2022-09-09T09:35:52.709Z,97825.28
2022-09-09T09:41:11.331Z,97808.19
2022-09-09T09:43:41.810Z,97841.09
2022-09-09T09:46:22.009Z,97820.06
2022-09-09T09:49:06.339Z,97872.66
2022-09-09T09:51:34.823Z,97746.84
2022-09-09T09:54:13.938Z,97863.44
2022-09-09T09:56:42.848Z,97798.78
2022-09-09T09:59:43.573Z,97858.69
2022-09-09T10:02:24.777Z,97850.38
2022-09-09T10:05:13.369Z,97844.47
2022-09-09T10:07:41.514Z,97812.50
2022-09-09T10:10:16.481Z,97730.16
2022-09-09T10:13:16.261Z,97828.34
2022-09-09T10:15:42.906Z,97857.09
2022-09-09T10:18:41.932Z,97859.25
2022-09-09T10:21:32.951Z,97807.97
2022-09-09T10:24:37.444Z,97839.09
2022-09-09T10:27:28.880Z,97833.97
2022-09-09T10:30:07.581Z,97765.28
2022-09-09T10:32:40.202Z,97827.97
2022-09-09T10:35:39.621Z,97833.59
2022-09-09T10:38:15.330Z,97825.50
2022-09-09T10:41:03.070Z,97796.41
2022-09-09T10:43:32.752Z,97823.63
2022-09-09T10:46:17.365Z,97741.38
2022-09-09T10:49:15.441Z,97758.88
2022-09-09T10:52:06.695Z,97770.16
2022-09-09T10:55:03.915Z,97820.56
2022-09-09T10:57:38.423Z,97793.72
2022-09-09T11:00:07.983Z,97729.59
2022-09-09T11:02:35.648Z,97784.88
2022-09-09T11:05:15.565Z,97775.78
2022-09-09T11:07:49.193Z,97763.44
2022-09-09T11:10:34.927Z,97784.06
2022-09-09T11:13:08.666Z,97641.44
2022-09-09T11:15:47.780Z,97826.50
2022-09-09T11:18:20.476Z,97776.22
2022-09-09T11:20:50.235Z,97687.75
2022-09-09T11:23:24.229Z,97761.84
2022-09-09T11:25:59.514Z,97796.16
2022-09-09T11:28:37.254Z,97707.66
2022-09-09T11:31:30.749Z,97827.25
2022-09-09T11:34:18.221Z,97818.13
2022-09-09T11:36:50.990Z,97825.91
2022-09-09T11:39:39.055Z,97826.47
2022-09-09T11:42:18.365Z,97806.91
2022-09-09T11:44:45.541Z,97693.75
2022-09-09T11:47:30.538Z,97818.69
2022-09-09T11:50:15.529Z,97814.69
2022-09-09T11:52:45.073Z,97784.06
2022-09-09T11:55:33.078Z,97821.09
2022-09-09T11:58:05.543Z,97775.75
2022-09-09T12:00:41.435Z,97746.22
2022-09-09T12:03:32.982Z,97791.31
2022-09-09T12:06:00.817Z,97725.91
2022-09-09T12:08:30.926Z,97761.53
2022-09-09T12:10:59.909Z,97772.22
2022-09-09T12:13:28.520Z,97764.94
2022-09-09T12:15:57.902Z,97700.09
2022-09-09T12:18:36.797Z,97756.41
2022-09-09T12:21:22.656Z,97764.97
2022-09-09T12:24:18.643Z,97779.50
2022-09-09T12:26:59.639Z,97732.88
2022-09-09T12:29:44.718Z,97768.28
2022-09-09T12:32:15.581Z,97809.78
2022-09-09T12:34:45.358Z,97819.94
2022-09-09T12:37:48.787Z,97798.22
2022-09-09T12:40:28.273Z,97820.53
2022-09-09T12:42:55.369Z,97762.38
2022-09-09T12:45:27.430Z,97743.88
2022-09-09T12:48:04.643Z,97539.84
2022-09-09T12:50:34.058Z,97782.22
2022-09-09T12:53:08.126Z,97830.25
2022-09-09T12:55:38.934Z,97819.25
2022-09-09T12:58:07.442Z,97780.34
2022-09-09T13:00:59.127Z,97816.56
2022-09-09T13:03:26.359Z,97780.59
2022-09-09T13:05:54.559Z,97817.09
2022-09-09T13:08:21.655Z,97783.00
2022-09-09T13:10:58.692Z,97806.09
2022-09-09T13:13:36.232Z,97763.16
2022-09-09T13:16:05.027Z,97781.69
2022-09-09T13:18:34.832Z,97706.03
2022-09-09T13:21:02.437Z,97804.75
2022-09-09T13:23:32.204Z,97777.13
2022-09-09T13:26:26.095Z,97793.47
2022-09-09T13:28:54.873Z,97762.84
2022-09-09T13:31:29.950Z,97783.00
2022-09-09T13:33:57.131Z,97785.31
2022-09-09T13:36:36.063Z,97781.00
2022-09-09T13:39:04.737Z,97785.53
2022-09-09T13:41:37.299Z,97714.97
2022-09-09T13:44:05.521Z,97724.34
2022-09-09T13:46:36.591Z,97770.41
2022-09-09T13:49:21.636Z,97744.59
2022-09-09T13:51:51.039Z,97758.28
2022-09-09T13:54:19.763Z,97770.16
2022-09-09T13:56:47.196Z,97744.16
2022-09-09T13:59:20.504Z,97776.63
2022-09-09T14:01:47.821Z,97745.38
2022-09-09T14:04:14.583Z,97682.41
2022-09-09T14:06:41.366Z,97761.53
2022-09-09T14:09:10.960Z,97768.25
2022-09-09T14:11:37.901Z,97733.38
2022-09-09T14:14:04.738Z,97714.09
2022-09-09T14:16:31.493Z,97702.28
2022-09-09T14:18:58.257Z,97712.88
2022-09-09T14:21:25.877Z,97726.19
2022-09-09T14:23:53.039Z,97736.91
2022-09-09T14:26:21.073Z,97529.59
2022-09-09T14:28:56.202Z,97683.88
2022-09-09T14:31:24.163Z,97751.22
2022-09-09T14:33:51.256Z,97631.41
2022-09-09T14:36:17.894Z,97664.38
2022-09-09T14:38:44.728Z,97714.13
2022-09-09T14:41:13.417Z,97755.41
2022-09-09T14:43:40.749Z,97742.03
2022-09-09T14:46:12.209Z,97733.34
2022-09-09T14:48:39.353Z,97728.13
2022-09-09T14:51:25.868Z,97716.16
2022-09-09T14:53:54.252Z,97752.53
2022-09-09T14:56:23.641Z,97707.56
2022-09-09T14:58:50.957Z,97651.34
2022-09-09T15:01:32.614Z,97747.28
2022-09-09T15:04:05.228Z,97749.97
2022-09-09T15:06:34.526Z,97709.44
2022-09-09T15:09:01.813Z,97763.53
2022-09-09T15:11:31.413Z,97756.38
2022-09-09T15:13:58.123Z,97764.16
2022-09-09T15:16:28.037Z,97762.06
2022-09-09T15:18:57.620Z,97754.03
2022-09-09T15:21:26.468Z,97703.38
2022-09-09T15:23:53.383Z,97748.94
2022-09-09T15:26:20.499Z,97741.66
2022-09-09T15:28:47.744Z,97733.91
2022-09-09T15:31:20.307Z,97739.81
2022-09-09T15:33:50.988Z,97735.75
2022-09-09T15:36:23.539Z,97737.06
2022-09-09T15:38:51.368Z,97736.53
2022-09-09T15:41:19.783Z,97733.88
2022-09-09T15:43:51.589Z,97734.41
2022-09-09T15:46:18.253Z,97737.88
2022-09-09T15:48:47.288Z,97725.25
2022-09-09T15:51:40.123Z,97725.78
2022-09-09T15:54:02.531Z,97726.09
2022-09-09T15:56:30.338Z,97723.69
2022-09-09T15:58:58.236Z,97731.75
2022-09-09T16:01:25.458Z,97731.25
2022-09-09T16:03:52.251Z,97726.44
2022-09-09T16:06:21.659Z,97744.91
2022-09-09T16:08:51.269Z,97748.41
2022-09-09T16:11:23.075Z,97743.31
2022-09-09T16:13:52.631Z,97740.59
2022-09-09T16:16:22.178Z,97743.56
2022-09-09T16:18:57.738Z,97733.66
2022-09-09T16:21:27.084Z,97746.81
2022-09-09T16:23:53.983Z,97737.97
2022-09-09T16:26:21.741Z,97736.91
2022-09-09T16:28:48.752Z,97746.28
2022-09-09T16:31:19.104Z,97746.78
2022-09-09T16:33:46.036Z,97759.59
2022-09-09T16:36:23.849Z,97716.69
2022-09-09T16:38:58.350Z,97759.09
2022-09-09T16:41:27.465Z,97781.59
2022-09-09T16:43:56.043Z,97786.84
2022-09-09T16:46:28.720Z,97764.25
2022-09-09T16:48:58.011Z,97789.47
2022-09-09T16:51:32.788Z,97787.88
2022-09-09T16:54:01.289Z,97788.91
2022-09-09T16:56:29.992Z,97787.59
2022-09-09T16:59:02.059Z,97756.63
2022-09-09T17:01:34.388Z,97797.41
2022-09-09T17:04:02.606Z,97794.09
2022-09-09T17:06:31.050Z,97798.53
2022-09-09T17:08:59.540Z,97787.72
2022-09-09T17:11:26.924Z,97811.59
2022-09-09T17:13:54.453Z,97809.22
2022-09-09T17:16:23.657Z,97815.72
2022-09-09T17:18:51.200Z,97818.06
2022-09-09T17:21:20.171Z,97784.41
2022-09-09T17:23:47.362Z,97821.94
2022-09-09T17:26:17.340Z,97821.53
2022-09-09T17:28:45.167Z,97819.28
2022-09-09T17:31:14.497Z,97829.03
2022-09-09T17:33:44.221Z,97828.78
2022-09-09T17:36:19.319Z,97833.09
2022-09-09T17:38:46.774Z,97826.72
2022-09-09T17:41:38.693Z,97835.75
2022-09-09T17:46:40.450Z,97849.50
2022-09-09T17:49:10.213Z,97845.13
2022-09-09T17:51:37.207Z,97829.25
2022-09-09T17:54:09.207Z,97837.31
2022-09-09T17:56:37.761Z,97815.16
2022-09-09T17:59:06.951Z,97870.28
2022-09-09T18:01:36.119Z,97865.28
2022-09-09T18:04:05.067Z,97863.19
2022-09-09T18:06:37.277Z,97863.31
2022-09-09T18:09:07.401Z,97863.19
2022-09-09T18:11:38.948Z,97858.44
2022-09-09T18:14:05.857Z,97857.38
2022-09-09T18:16:34.457Z,97868.72
2022-09-09T18:19:01.664Z,97849.41
2022-09-09T18:21:30.741Z,97851.47
2022-09-09T18:23:57.503Z,97863.81
2022-09-09T18:26:25.644Z,97859.97
2022-09-09T18:28:55.319Z,97861.38
2022-09-09T18:31:23.863Z,97859.94
2022-09-09T18:33:51.503Z,97862.50
2022-09-09T18:36:26.453Z,97722.75
2022-09-09T18:38:53.554Z,97853.19
2022-09-09T18:41:20.080Z,97854.25
2022-09-09T18:43:48.546Z,97849.25
2022-09-09T18:46:15.763Z,97847.31
2022-09-09T18:48:43.948Z,97842.22
2022-09-09T18:51:11.156Z,97859.00
2022-09-09T18:53:38.801Z,97794.72
2022-09-09T18:56:08.550Z,97847.97
2022-09-09T18:58:36.279Z,97849.16
2022-09-09T19:01:04.417Z,97864.19
2022-09-09T19:03:31.379Z,97841.16
2022-09-09T19:06:27.263Z,97868.41
2022-09-09T19:08:56.268Z,97822.50
2022-09-09T19:11:26.336Z,97809.56
2022-09-09T19:13:56.012Z,97864.34
2022-09-09T19:16:23.747Z,97877.53
2022-09-09T19:18:51.405Z,97886.66
2022-09-09T19:21:27.161Z,97883.19
2022-09-09T19:23:59.595Z,97882.84
2022-09-09T19:26:32.160Z,97884.06
2022-09-09T19:28:59.942Z,97881.41
2022-09-09T19:31:27.638Z,97876.53
2022-09-09T19:33:55.612Z,97880.50
2022-09-09T19:36:24.252Z,97877.59
2022-09-09T19:38:53.189Z,97851.88
2022-09-09T19:41:22.467Z,97874.47
2022-09-09T19:43:49.192Z,97870.38
2022-09-09T19:46:16.030Z,97884.66
2022-09-09T19:48:43.109Z,97893.03
2022-09-09T19:51:12.564Z,97896.72
2022-09-09T19:53:45.424Z,97894.59
2022-09-09T19:56:12.888Z,97900.75
2022-09-09T19:58:41.430Z,97899.94
2022-09-09T20:01:23.718Z,97905.16
2022-09-09T20:03:52.278Z,97907.94
2022-09-09T20:06:21.708Z,97912.13
2022-09-09T20:08:48.555Z,97905.63
2022-09-09T20:11:16.689Z,97907.06
2022-09-09T20:13:44.196Z,97906.38
2022-09-09T20:16:19.378Z,97892.19
2022-09-09T20:18:49.028Z,97907.47
2022-09-09T20:21:18.074Z,97913.47
2022-09-09T20:23:44.775Z,97912.75
2022-09-09T20:26:13.652Z,97910.06
2022-09-09T20:28:41.524Z,97915.19
2022-09-09T20:31:13.846Z,97912.03
2022-09-09T20:33:42.385Z,97877.25
2022-09-09T20:36:17.424Z,97894.38
2022-09-09T20:38:49.585Z,97869.47
2022-09-09T20:41:17.494Z,97903.06
2022-09-09T20:43:48.332Z,97902.84
2022-09-09T20:46:20.454Z,97913.41
2022-09-09T20:48:48.775Z,97901.47
2022-09-09T20:51:15.571Z,97907.34
2022-09-09T20:53:42.210Z,97862.75
2022-09-09T20:56:10.571Z,97905.31
2022-09-09T20:58:37.436Z,97884.19
2022-09-09T21:01:06.972Z,97915.41
2022-09-09T21:03:35.778Z,97914.38
2022-09-09T21:06:03.709Z,97916.69
2022-09-09T21:08:30.815Z,97923.03
2022-09-09T21:10:57.844Z,97917.59
2022-09-09T21:13:25.274Z,97918.41
2022-09-09T21:15:52.499Z,97915.03
2022-09-09T21:18:19.684Z,97916.16
2022-09-09T21:20:46.822Z,97776.53
2022-09-09T21:23:14.954Z,97914.03
2022-09-09T21:25:42.209Z,97917.81
2022-09-09T21:28:09.988Z,97871.56
2022-09-09T21:30:43.456Z,97912.13
2022-09-09T21:33:11.563Z,97909.19
2022-09-09T21:35:39.691Z,97894.78
2022-09-09T21:38:15.045Z,97913.88
2022-09-09T21:40:41.924Z,97898.28
2022-09-09T21:43:09.392Z,97895.03
2022-09-09T21:45:37.454Z,97913.78
2022-09-09T21:48:05.882Z,97884.75
2022-09-09T21:50:53.320Z,97925.56
2022-09-09T21:53:20.181Z,97923.03
2022-09-09T21:55:48.221Z,97926.50
2022-09-09T21:58:16.188Z,97934.84
2022-09-09T22:00:47.300Z,97909.03
2022-09-09T22:03:15.605Z,97926.06
2022-09-09T22:05:43.923Z,97932.53
2022-09-09T22:08:12.617Z,97942.84
2022-09-09T22:10:43.631Z,97939.47
2022-09-09T22:13:10.351Z,97939.72
2022-09-09T22:15:41.276Z,97936.25
2022-09-09T22:18:07.972Z,97944.22
2022-09-09T22:20:43.184Z,97940.38
2022-09-09T22:23:11.098Z,97935.63
2022-09-09T22:25:38.554Z,97935.88
2022-09-09T22:28:07.292Z,97928.13
2022-09-09T22:30:34.086Z,97922.59
2022-09-09T22:33:01.111Z,97930.22
2022-09-09T22:35:27.793Z,97932.75
2022-09-09T22:37:54.598Z,97927.91
2022-09-09T22:40:21.640Z,97912.63
2022-09-09T22:42:52.409Z,97920.63
2022-09-09T22:45:19.984Z,97925.47
2022-09-09T22:47:46.664Z,97896.59
2022-09-09T22:50:13.503Z,97931.16
2022-09-09T22:52:40.087Z,97862.78
2022-09-09T22:55:07.547Z,97919.22
2022-09-09T22:57:34.232Z,97919.00
2022-09-09T23:00:01.004Z,97900.13
2022-09-09T23:02:27.618Z,97918.50
2022-09-09T23:04:54.357Z,97758.91
2022-09-09T23:07:20.943Z,97913.31
2022-09-09T23:09:47.622Z,97910.75
2022-09-09T23:12:15.054Z,97896.41
2022-09-09T23:14:41.695Z,97893.53
2022-09-09T23:17:08.289Z,97885.50
2022-09-09T23:19:35.065Z,97912.00
2022-09-09T23:22:01.652Z,97838.22
2022-09-09T23:24:28.295Z,97759.34
2022-09-09T23:26:54.923Z,97906.66
2022-09-09T23:29:21.564Z,97909.22
2022-09-09T23:31:48.208Z,97887.69
2022-09-09T23:34:15.033Z,97904.31
2022-09-09T23:36:41.924Z,97848.38
2022-09-09T23:39:09.020Z,97843.78
2022-09-09T23:41:37.157Z,97905.28
2022-09-09T23:44:04.933Z,97909.75
2022-09-09T23:46:33.322Z,97910.91
2022-09-09T23:49:00.254Z,97899.63
2022-09-09T23:51:28.843Z,97919.91
2022-09-09T23:53:56.692Z,97930.97
2022-09-09T23:56:26.964Z,97914.13
2022-09-09T23:58:53.969Z,97923.00
